Time;durP1;ratioP1;P1;durP2;ratioP2;P2;SDS_P1;SDS_P2;PMS_P1;PMS_P2;Temp;Humidity;BMP_temperature;BMP_pressure;BME280_temperature;BME280_humidity;BME280_pressure;Samples;Min_cycle;Max_cycle;Signal;HPM_P1;HPM_P2
2023/02/23 00:02:05;;;;;;;138.98;45.28;;;;;;;7.94;100.00;98926.41;5041465;28;20025;-61
2023/02/23 00:04:30;;;;;;;149.65;47.90;;;;;;;7.87;100.00;98936.38;5040381;28;20472;-61
2023/02/23 00:06:56;;;;;;;154.57;48.60;;;;;;;7.87;100.00;98931.03;5032656;28;20044;-61
2023/02/23 00:09:21;;;;;;;138.27;45.17;;;;;;;7.86;100.00;98940.09;5042816;28;20025;-61
2023/02/23 00:11:55;;;;;;;150.00;47.63;;;;;;;7.86;100.00;98931.25;5045268;28;20060;-61
2023/02/23 00:14:26;;;;;;;134.10;43.17;;;;;;;7.89;100.00;98934.28;5043201;28;20036;-61
2023/02/23 00:16:51;;;;;;;145.35;45.85;;;;;;;7.80;100.00;98925.00;5039606;28;20021;-60
2023/02/23 00:19:17;;;;;;;140.48;46.95;;;;;;;7.76;100.00;98926.50;5032452;28;20035;-60
2023/02/23 00:21:42;;;;;;;137.05;46.60;;;;;;;7.77;100.00;98934.28;5040412;28;20033;-61
2023/02/23 00:24:10;;;;;;;139.63;45.17;;;;;;;7.80;100.00;98927.66;5043536;28;20387;-61
2023/02/23 00:26:36;;;;;;;161.07;47.30;;;;;;;7.80;100.00;98927.66;5038014;28;20048;-61
2023/02/23 00:29:04;;;;;;;132.68;43.72;;;;;;;7.79;100.00;98936.72;5046688;28;20184;-61
2023/02/23 00:31:29;;;;;;;128.77;45.72;;;;;;;7.73;100.00;98925.09;5048323;28;20035;-61
2023/02/23 00:33:59;;;;;;;140.13;45.95;;;;;;;7.74;100.00;98936.63;5039477;28;20033;-61
2023/02/23 00:36:27;;;;;;;136.23;43.83;;;;;;;7.73;100.00;98924.31;5038852;28;20111;-61
2023/02/23 00:38:57;;;;;;;122.30;43.05;;;;;;;7.74;100.00;98925.94;5037612;28;20075;-61
2023/02/23 00:41:27;;;;;;;133.38;44.15;;;;;;;7.71;100.00;98921.03;5040123;28;20025;-61
2023/02/23 00:43:54;;;;;;;145.75;45.17;;;;;;;7.76;100.00;98918.50;5038259;28;20447;-60
2023/02/23 00:46:20;;;;;;;120.25;41.47;;;;;;;7.74;100.00;98921.41;5037568;28;20369;-60
2023/02/23 00:48:47;;;;;;;129.18;42.70;;;;;;;7.74;100.00;98923.28;5043427;28;20029;-60
2023/02/23 00:51:14;;;;;;;129.73;42.50;;;;;;;7.72;100.00;98930.69;5042494;28;20040;-60
2023/02/23 00:53:40;;;;;;;131.13;42.92;;;;;;;7.70;100.00;98922.09;5041219;28;20024;-61
2023/02/23 00:56:07;;;;;;;129.90;43.17;;;;;;;7.75;100.00;98917.69;5041533;28;20492;-60
2023/02/23 00:58:32;;;;;;;126.18;42.35;;;;;;;7.70;100.00;98920.25;5040851;28;20029;-60
2023/02/23 01:01:00;;;;;;;129.38;40.85;;;;;;;7.76;100.00;98923.84;5043002;28;20024;-60
2023/02/23 01:03:26;;;;;;;123.20;42.97;;;;;;;7.74;100.00;98909.94;5034181;28;20146;-60
2023/02/23 01:05:54;;;;;;;137.88;46.03;;;;;;;7.64;100.00;98921.19;5035004;28;20022;-60
2023/02/23 01:08:22;;;;;;;140.85;41.47;;;;;;;7.70;100.00;98927.44;5042581;28;20111;-61
2023/02/23 01:10:52;;;;;;;119.70;42.05;;;;;;;7.72;100.00;98923.50;5039940;28;20399;-60
2023/02/23 01:13:18;;;;;;;134.25;43.67;;;;;;;7.67;100.00;98914.56;5048321;28;20501;-60
2023/02/23 01:15:46;;;;;;;136.07;43.45;;;;;;;7.66;100.00;98911.09;5045727;28;20036;-60
2023/02/23 01:18:12;;;;;;;131.27;42.50;;;;;;;7.66;100.00;98910.25;5051642;28;20076;-60
2023/02/23 01:20:40;;;;;;;137.05;44.67;;;;;;;7.63;100.00;98921.41;5040068;28;20032;-60
2023/02/23 01:23:06;;;;;;;128.35;42.72;;;;;;;7.63;100.00;98924.06;5039094;28;20033;-60
2023/02/23 01:25:31;;;;;;;128.52;38.85;;;;;;;7.65;100.00;98921.97;5039843;28;20037;-60
2023/02/23 01:27:57;;;;;;;131.35;42.70;;;;;;;7.66;100.00;98923.59;5043737;28;20047;-61
2023/02/23 01:30:22;;;;;;;129.70;43.22;;;;;;;7.65;100.00;98921.97;5045799;28;20021;-60
2023/02/23 01:32:48;;;;;;;113.82;40.92;;;;;;;7.62;100.00;98922.44;5050266;28;20364;-61
2023/02/23 01:35:13;;;;;;;129.32;41.47;;;;;;;7.63;100.00;98926.72;5049645;28;20426;-61
2023/02/23 01:37:40;;;;;;;122.90;41.70;;;;;;;7.64;100.00;98920.34;5050326;28;20493;-60
2023/02/23 01:40:14;;;;;;;125.57;40.28;;;;;;;7.64;100.00;98921.19;5044394;28;20029;-60
2023/02/23 01:42:41;;;;;;;108.45;38.72;;;;;;;7.66;100.00;98923.59;5043146;28;20087;-60
2023/02/23 01:45:26;;;;;;;108.53;38.67;;;;;;;7.67;100.00;98925.25;5047759;28;20483;-60
2023/02/23 01:47:54;;;;;;;99.07;38.17;;;;;;;7.66;100.00;98915.59;5047481;28;20036;-61
2023/02/23 01:50:19;;;;;;;110.60;38.55;;;;;;;7.68;100.00;98926.84;5047318;28;20104;-60
2023/02/23 01:52:46;;;;;;;105.07;37.17;;;;;;;7.69;100.00;98917.81;5031040;28;20202;-60
2023/02/23 01:55:11;;;;;;;100.70;36.83;;;;;;;7.66;100.00;98912.94;5039002;28;20040;-60
2023/02/23 01:57:37;;;;;;;108.18;38.75;;;;;;;7.63;100.00;98913.41;5050806;28;20467;-60
2023/02/23 02:00:11;;;;;;;111.90;36.30;;;;;;;7.61;100.00;98910.13;5037659;28;20017;-60
2023/02/23 02:02:37;;;;;;;106.72;38.15;;;;;;;7.62;100.00;98909.13;5045417;28;20041;-61
2023/02/23 02:05:03;;;;;;;110.50;39.05;;;;;;;7.66;100.00;98905.75;5042467;28;20040;-60
2023/02/23 02:07:29;;;;;;;91.15;37.08;;;;;;;7.64;100.00;98904.34;5046266;28;20474;-60
2023/02/23 02:12:37;;;;;;;98.55;36.42;;;;;;;7.60;100.00;98906.66;5033143;28;20044;-60
2023/02/23 02:15:04;;;;;;;101.65;36.92;;;;;;;7.60;100.00;98901.34;5041269;28;20029;-60
2023/02/23 02:17:33;;;;;;;96.93;35.92;;;;;;;7.58;100.00;98900.75;5042250;28;20064;-60
2023/02/23 02:20:05;;;;;;;102.38;36.42;;;;;;;7.59;100.00;98894.38;5038004;28;20032;-60
2023/02/23 02:23:03;;;;;;;103.60;38.30;;;;;;;7.60;100.00;98893.31;5047899;28;20403;-60
2023/02/23 02:25:55;;;;;;;100.47;35.70;;;;;;;7.63;100.00;98892.06;5040298;28;20033;-61
2023/02/23 02:28:45;;;;;;;105.78;36.15;;;;;;;7.65;100.00;98885.44;5045411;28;20040;-60
2023/02/23 02:31:10;;;;;;;103.68;36.58;;;;;;;7.70;100.00;98898.09;5038579;28;20037;-60
2023/02/23 02:33:36;;;;;;;96.00;36.60;;;;;;;7.67;100.00;98896.69;5046679;28;20051;-60
2023/02/23 02:36:11;;;;;;;99.10;34.33;;;;;;;7.71;100.00;98895.19;5043908;28;20081;-61
2023/02/23 02:38:41;;;;;;;94.38;38.05;;;;;;;7.72;100.00;98888.81;5042852;28;20119;-60
2023/02/23 02:41:15;;;;;;;;;;;;;;;7.71;100.00;98894.38;5050113;28;20042;-60
2023/02/23 02:43:58;;;;;;;89.60;33.53;;;;;;;7.69;100.00;98893.81;5037482;28;19927;-60
2023/02/23 02:46:25;;;;;;;86.18;32.70;;;;;;;7.67;100.00;98883.38;5026031;28;20116;-60
2023/02/23 02:49:05;;;;;;;85.13;34.15;;;;;;;7.70;100.00;98887.41;5042331;28;20040;-60
2023/02/23 02:51:39;;;;;;;81.72;29.83;;;;;;;7.70;100.00;98882.09;5069549;28;20032;-60
2023/02/23 02:54:30;;;;;;;85.07;32.88;;;;;;;7.64;100.00;98880.34;5028829;28;20380;-59
2023/02/23 02:56:56;;;;;;;74.35;30.95;;;;;;;7.65;100.00;98884.63;5039179;28;20068;-60
2023/02/23 04:18:17;;;;;;;;;;;;;;;7.50;100.00;98904.56;5046090;28;20039;-60
2023/02/23 04:20:42;;;;;;;68.93;26.60;;;;;;;7.50;100.00;98903.75;5043729;28;19982;-60
2023/02/23 04:23:08;;;;;;;73.15;29.67;;;;;;;7.47;100.00;98901.56;5077150;28;20021;-60
2023/02/23 04:25:34;;;;;;;80.13;29.60;;;;;;;7.41;100.00;98900.59;5041091;28;20033;-60
2023/02/23 04:27:59;;;;;;;80.40;31.17;;;;;;;7.44;100.00;98908.16;5044175;28;20029;-60
2023/02/23 04:30:27;;;;;;;82.05;30.70;;;;;;;7.45;100.00;98904.44;5040595;28;20021;-60
2023/02/23 04:32:53;;;;;;;76.28;31.88;;;;;;;7.49;100.00;98902.94;5035900;28;20060;-60
2023/02/23 04:35:18;;;;;;;78.07;30.52;;;;;;;7.47;100.00;98905.03;5043190;28;20029;-60
2023/02/23 04:37:44;;;;;;;82.85;31.08;;;;;;;7.46;100.00;98903.41;5048885;28;20063;-60
2023/02/23 04:40:09;;;;;;;76.40;29.52;;;;;;;7.45;100.00;98906.31;5037034;28;20022;-59
2023/02/23 04:42:37;;;;;;;74.82;30.50;;;;;;;7.41;100.00;98910.47;5034876;28;20021;-60
2023/02/23 04:45:02;;;;;;;79.25;30.15;;;;;;;7.40;100.00;98908.84;5041838;28;20013;-61
2023/02/23 04:47:28;;;;;;;80.22;29.95;;;;;;;7.36;100.00;98905.81;5046686;28;20161;-60
2023/02/23 04:49:54;;;;;;;89.85;34.13;;;;;;;7.38;100.00;98906.41;5039388;28;20036;-60
2023/02/23 04:52:19;;;;;;;84.70;31.50;;;;;;;7.39;100.00;98907.22;5046397;28;20020;-60
2023/02/23 04:54:44;;;;;;;86.97;31.77;;;;;;;7.43;100.00;98903.84;5046379;28;20029;-60
2023/02/23 04:57:10;;;;;;;87.93;32.50;;;;;;;7.44;100.00;98910.00;5047624;28;20476;-60
2023/02/23 04:59:35;;;;;;;85.40;31.23;;;;;;;7.43;100.00;98905.72;5036913;28;20045;-59
2023/02/23 05:02:01;;;;;;;103.05;34.85;;;;;;;7.45;100.00;98906.31;5042822;28;20368;-61
2023/02/23 05:04:26;;;;;;;99.47;34.55;;;;;;;7.49;100.00;98912.81;5052765;28;20117;-60
2023/02/23 05:06:52;;;;;;;101.75;36.17;;;;;;;7.48;100.00;98909.31;5046016;28;20029;-60
2023/02/23 05:09:17;;;;;;;100.88;33.10;;;;;;;7.47;100.00;98914.91;5045948;28;20021;-60
2023/02/23 05:11:43;;;;;;;94.45;32.22;;;;;;;7.48;100.00;98905.84;5048898;28;20111;-59
2023/02/23 05:14:09;;;;;;;90.10;34.92;;;;;;;7.48;100.00;98911.97;5046620;28;20111;-60
2023/02/23 05:16:34;;;;;;;81.97;30.27;;;;;;;7.49;100.00;98905.63;5041149;28;20028;-60
2023/02/23 05:19:00;;;;;;;74.80;28.60;;;;;;;7.49;100.00;98907.47;5042471;28;20060;-60
2023/02/23 05:21:25;;;;;;;72.85;26.88;;;;;;;7.46;100.00;98910.59;5038752;28;20033;-60
2023/02/23 05:23:51;;;;;;;92.47;31.70;;;;;;;7.48;100.00;98911.97;5045619;28;20052;-60
2023/02/23 05:26:17;;;;;;;83.63;31.77;;;;;;;7.45;100.00;98907.09;5042681;28;20326;-59
2023/02/23 05:28:43;;;;;;;78.32;30.42;;;;;;;7.47;100.00;98910.38;5046925;28;20029;-60
2023/02/23 05:31:08;;;;;;;82.88;29.40;;;;;;;7.48;100.00;98906.66;5052361;28;20043;-60
2023/02/23 05:33:41;;;;;;;80.65;29.35;;;;;;;7.50;100.00;98904.56;5050625;28;20029;-59
2023/02/23 05:36:07;;;;;;;88.10;30.45;;;;;;;7.45;100.00;98901.78;5047596;28;20036;-60
2023/02/23 05:38:33;;;;;;;59.38;25.63;;;;;;;7.47;100.00;98901.56;5052028;28;20067;-59
2023/02/23 05:40:58;;;;;;;72.65;28.58;;;;;;;7.48;100.00;98901.31;5035891;28;20503;-59
2023/02/23 05:43:24;;;;;;;69.22;26.95;;;;;;;7.43;100.00;98909.19;5047832;28;20032;-59
2023/02/23 05:45:49;;;;;;;68.97;26.27;;;;;;;7.37;100.00;98912.78;5039688;28;20305;-59
2023/02/23 05:48:17;;;;;;;63.72;25.40;;;;;;;7.39;100.00;98916.03;5046019;28;20034;-59
2023/02/23 05:50:42;;;;;;;65.47;27.02;;;;;;;7.42;100.00;98917.44;5046252;28;20421;-59
2023/02/23 05:53:09;;;;;;;68.25;27.92;;;;;;;7.40;100.00;98920.31;5044508;28;20080;-59
2023/02/23 05:55:34;;;;;;;67.15;27.80;;;;;;;7.39;100.00;98926.72;5041823;28;20305;-59
2023/02/23 05:58:00;;;;;;;74.03;28.17;;;;;;;7.35;100.00;98929.00;5052318;28;20023;-59
2023/02/23 06:00:25;;;;;;;68.80;24.75;;;;;;;7.31;100.00;98929.69;5046789;28;20510;-59
2023/02/23 06:02:52;;;;;;;81.32;29.98;;;;;;;7.34;100.00;98926.59;5040204;28;20033;-59
2023/02/23 06:05:18;;;;;;;73.70;27.42;;;;;;;7.34;100.00;98931.91;5044498;28;20030;-59
2023/02/23 06:07:43;;;;;;;80.35;27.77;;;;;;;7.24;100.00;98934.28;5047599;28;20446;-60
2023/02/23 06:10:09;;;;;;;83.43;29.48;;;;;;;7.21;100.00;98926.75;5040852;28;20257;-59
2023/02/23 06:12:34;;;;;;;91.50;31.30;;;;;;;7.21;100.00;98937.41;5049181;28;20111;-59
2023/02/23 06:15:00;;;;;;;78.30;29.27;;;;;;;7.22;100.00;98939.88;5046324;28;20472;-59
2023/02/23 06:17:25;;;;;;;80.55;28.73;;;;;;;7.25;100.00;98938.59;5045339;28;20033;-60
2023/02/23 06:19:51;;;;;;;84.05;30.77;;;;;;;7.28;100.00;98946.94;5036116;28;20269;-59
2023/02/23 06:22:16;;;;;;;80.03;30.45;;;;;;;7.28;100.00;98935.47;5053979;28;20028;-59
2023/02/23 06:24:42;;;;;;;85.93;31.08;;;;;;;7.31;100.00;98943.00;5038507;28;20380;-59
2023/02/23 06:27:08;;;;;;;99.07;40.22;;;;;;;7.29;100.00;98939.78;5044096;28;20075;-59
2023/02/23 06:29:33;;;;;;;82.38;39.45;;;;;;;7.29;100.00;98940.59;5035212;28;20496;-59
2023/02/23 06:31:59;;;;;;;81.70;32.42;;;;;;;7.28;100.00;98948.81;5044423;28;20079;-60
2023/02/23 06:34:24;;;;;;;76.45;31.08;;;;;;;7.33;100.00;98943.59;5050430;28;20032;-60
2023/02/23 06:36:50;;;;;;;87.65;32.83;;;;;;;7.29;100.00;98945.91;5042841;28;20025;-60
2023/02/23 06:39:15;;;;;;;89.80;31.85;;;;;;;7.29;100.00;98955.78;5044458;28;20086;-59
2023/02/23 06:41:41;;;;;;;80.05;30.80;;;;;;;7.30;100.00;98952.06;5053650;28;20474;-59
2023/02/23 06:44:06;;;;;;;83.10;29.63;;;;;;;7.28;100.00;98948.81;5049167;28;20040;-60
2023/02/23 06:46:32;;;;;;;87.47;30.75;;;;;;;7.29;100.00;98955.78;5044135;28;20034;-63
2023/02/23 06:48:58;;;;;;;79.28;31.10;;;;;;;7.33;100.00;98956.94;5033791;28;20033;-59
2023/02/23 06:51:24;;;;;;;84.15;31.38;;;;;;;7.29;100.00;98950.44;5044668;28;20044;-59
2023/02/23 06:53:51;;;;;;;83.10;31.48;;;;;;;7.38;100.00;98957.06;5052940;28;20131;-59
2023/02/23 06:56:16;;;;;;;92.32;32.75;;;;;;;7.39;100.00;98961.38;5044398;28;20022;-60
2023/02/23 06:58:42;;;;;;;89.82;32.65;;;;;;;7.45;100.00;98968.44;5049589;28;20135;-60
2023/02/23 07:01:08;;;;;;;88.30;33.67;;;;;;;7.46;100.00;98972.75;5038738;28;20159;-60
2023/02/23 07:03:34;;;;;;;82.82;35.95;;;;;;;7.48;100.00;98967.16;5042256;28;20183;-60
2023/02/23 07:05:59;;;;;;;85.47;34.10;;;;;;;7.50;100.00;98971.22;5069744;28;20488;-60
2023/02/23 07:08:25;;;;;;;82.43;34.38;;;;;;;7.53;100.00;98973.44;5043973;28;20029;-60
2023/02/23 07:10:50;;;;;;;73.82;32.97;;;;;;;7.54;100.00;98979.59;5042497;28;20291;-60
2023/02/23 07:13:16;;;;;;;78.30;30.98;;;;;;;7.56;100.00;98975.66;5039413;28;20109;-59
2023/02/23 07:15:41;;;;;;;75.40;30.83;;;;;;;7.57;100.00;98995.16;5044633;28;20486;-60
2023/02/23 07:18:07;;;;;;;84.57;38.35;;;;;;;7.51;100.00;98991.53;5043136;28;20361;-59
2023/02/23 07:20:32;;;;;;;91.30;32.10;;;;;;;7.41;100.00;99004.59;5040816;28;20035;-59
2023/02/23 07:22:59;;;;;;;83.38;33.15;;;;;;;7.44;100.00;99006.00;5039601;28;20060;-59
2023/02/23 07:25:26;;;;;;;86.90;35.55;;;;;;;7.47;100.00;99016.22;5037885;28;20074;-59
2023/02/23 07:27:52;;;;;;;95.20;36.45;;;;;;;7.46;100.00;99026.09;5037665;28;20036;-59
2023/02/23 07:30:18;;;;;;;103.03;36.17;;;;;;;7.51;100.00;99023.56;5039538;28;20066;-59
2023/02/23 07:32:44;;;;;;;86.53;34.58;;;;;;;7.54;100.00;99019.63;5037997;28;20057;-59
2023/02/23 07:35:09;;;;;;;84.25;33.35;;;;;;;7.54;100.00;99022.28;5035591;28;20063;-59
2023/02/23 07:37:35;;;;;;;87.80;33.95;;;;;;;7.53;100.00;99026.78;5034087;28;20036;-59
2023/02/23 07:40:00;;;;;;;82.55;31.67;;;;;;;7.49;100.00;99030.16;5034451;28;20029;-59
2023/02/23 07:42:26;;;;;;;78.57;31.85;;;;;;;7.56;100.00;99026.34;5040441;28;20082;-59
2023/02/23 07:44:51;;;;;;;86.30;35.15;;;;;;;7.54;100.00;99027.63;5076276;28;20460;-62
2023/02/23 07:47:17;;;;;;;90.90;43.08;;;;;;;7.45;100.00;99027.09;5035595;28;20021;-59
2023/02/23 07:49:42;;;;;;;86.53;39.58;;;;;;;7.58;100.00;99026.09;5036161;28;20166;-59
2023/02/23 07:52:08;;;;;;;95.70;39.70;;;;;;;7.69;100.00;99035.19;5039057;28;20059;-59
2023/02/23 07:54:33;;;;;;;95.00;42.22;;;;;;;7.62;100.00;99031.81;5039454;28;20029;-59
2023/02/23 07:56:59;;;;;;;90.97;41.75;;;;;;;7.65;100.00;99039.34;5044808;28;20033;-59
2023/02/23 07:59:24;;;;;;;97.15;42.85;;;;;;;7.68;100.00;99034.34;5038893;28;20032;-59
2023/02/23 08:01:50;;;;;;;96.47;44.60;;;;;;;7.65;100.00;99034.00;5037922;28;20424;-61
2023/02/23 08:04:16;;;;;;;90.80;43.67;;;;;;;7.64;100.00;99037.69;5039118;28;21213;-59
2023/02/23 08:06:42;;;;;;;94.30;45.28;;;;;;;7.67;100.00;99037.28;5045398;28;20435;-60
2023/02/23 08:09:07;;;;;;;93.18;44.38;;;;;;;7.82;100.00;99034.97;5049228;28;20032;-60
2023/02/23 08:11:33;;;;;;;99.78;45.92;;;;;;;7.82;100.00;99034.97;5039691;28;20091;-59
2023/02/23 08:14:01;;;;;;;96.18;44.33;;;;;;;7.97;100.00;99038.03;5045160;28;20029;-59
2023/02/23 08:16:29;;;;;;;87.78;44.22;;;;;;;7.98;100.00;99044.97;5040158;28;20037;-59
2023/02/23 08:18:57;;;;;;;90.25;43.50;;;;;;;8.06;100.00;99046.50;5041417;28;20103;-60
2023/02/23 08:21:23;;;;;;;86.53;44.70;;;;;;;7.98;100.00;99042.31;5047069;28;20108;-60
2023/02/23 08:23:48;;;;;;;84.30;42.63;;;;;;;8.00;100.00;99048.22;5014630;28;20439;-60
2023/02/23 08:26:13;;;;;;;83.95;42.55;;;;;;;7.95;100.00;99048.09;5042754;28;20021;-60
2023/02/23 08:28:40;;;;;;;89.38;44.70;;;;;;;7.98;100.00;99036.97;5043010;28;20471;-60
2023/02/23 08:31:08;;;;;;;86.25;44.70;;;;;;;8.03;100.00;99043.47;5047264;28;20171;-60
2023/02/23 08:33:35;;;;;;;84.45;45.58;;;;;;;8.03;100.00;99048.81;5060968;28;20109;-60
2023/02/23 08:36:01;;;;;;;83.60;46.08;;;;;;;7.99;100.00;99046.63;5048406;28;20074;-59
2023/02/23 08:38:26;;;;;;;91.43;46.80;;;;;;;8.00;100.00;99048.22;5053179;28;20029;-60
2023/02/23 08:40:53;;;;;;;98.30;49.28;;;;;;;7.96;100.00;99049.75;5048807;28;20017;-60
2023/02/23 08:43:18;;;;;;;94.13;47.47;;;;;;;7.94;100.00;99048.34;5047927;28;20028;-60
2023/02/23 08:45:44;;;;;;;87.53;45.85;;;;;;;7.79;100.00;99046.13;5049005;28;20025;-59
2023/02/23 08:48:09;;;;;;;101.07;52.10;;;;;;;7.76;100.00;99052.72;5039961;28;20044;-60
2023/02/23 08:50:35;;;;;;;98.80;50.78;;;;;;;7.84;100.00;99056.91;5041366;28;20029;-60
2023/02/23 08:53:00;;;;;;;95.15;50.28;;;;;;;7.76;100.00;99058.06;5040752;28;20033;-59
2023/02/23 08:55:25;;;;;;;97.75;50.50;;;;;;;7.89;100.00;99065.06;5032943;28;20037;-59
2023/02/23 08:57:51;;;;;;;94.18;48.80;;;;;;;7.90;100.00;99064.00;5046502;28;20366;-60
2023/02/23 09:00:17;;;;;;;95.35;50.40;;;;;;;7.86;100.00;99057.50;5033340;28;20392;-60
2023/02/23 09:02:44;;;;;;;98.68;49.65;;;;;;;7.95;100.00;99056.13;5039427;28;20124;-60
2023/02/23 09:05:09;;;;;;;110.18;51.67;;;;;;;7.93;100.00;99062.72;5043076;28;20474;-60
2023/02/23 09:07:36;;;;;;;113.82;52.00;;;;;;;7.89;100.00;99062.38;5050891;28;20043;-59
2023/02/23 09:10:02;;;;;;;108.35;50.83;;;;;;;7.94;100.00;99067.03;5028947;28;20040;-59
2023/02/23 09:12:27;;;;;;;96.13;49.55;;;;;;;7.75;100.00;99067.09;5040487;28;20397;-60
2023/02/23 09:14:52;;;;;;;94.68;47.35;;;;;;;7.75;100.00;99066.28;5048437;28;20059;-59
2023/02/23 09:17:19;;;;;;;104.95;52.30;;;;;;;7.76;100.00;99075.91;5047109;28;20036;-60
2023/02/23 09:19:44;;;;;;;120.50;53.50;;;;;;;7.84;100.00;99070.25;5047474;28;20454;-60
2023/02/23 09:22:10;;;;;;;100.55;50.20;;;;;;;7.96;100.00;99072.94;5042215;28;20096;-60
2023/02/23 09:24:39;;;;;;;110.72;53.53;;;;;;;7.95;100.00;99077.47;5044922;28;20037;-60
2023/02/23 09:27:06;;;;;;;99.90;49.75;;;;;;;8.14;100.00;99080.06;5050014;28;20441;-60
2023/02/23 09:29:31;;;;;;;102.10;49.65;;;;;;;8.12;100.00;99082.16;5040750;28;20030;-60
2023/02/23 09:31:57;;;;;;;100.32;50.42;;;;;;;8.13;100.00;99089.09;5048139;28;20047;-59
2023/02/23 09:34:23;;;;;;;109.32;53.85;;;;;;;8.04;100.00;99082.47;5044482;28;20044;-60
2023/02/23 09:36:48;;;;;;;101.68;50.10;;;;;;;8.08;100.00;99088.97;5041340;28;20059;-60
2023/02/23 09:39:14;;;;;;;100.72;50.50;;;;;;;7.98;100.00;99094.88;5034001;28;20456;-60
2023/02/23 09:42:12;;;;;;;107.95;51.28;;;;;;;8.00;100.00;99096.28;5039285;28;20029;-60
2023/02/23 09:44:53;;;;;;;113.38;52.25;;;;;;;8.02;100.00;99093.38;5040976;28;20059;-60
2023/02/23 09:47:25;;;;;;;104.13;50.20;;;;;;;7.97;100.00;99102.06;5042421;28;20471;-59
2023/02/23 09:49:51;;;;;;;107.68;54.03;;;;;;;7.96;100.00;99099.63;5043004;28;20490;-60
2023/02/23 09:52:23;;;;;;;109.43;52.83;;;;;;;8.02;100.00;99103.25;5040127;28;20032;-60
2023/02/23 09:54:48;;;;;;;123.35;58.92;;;;;;;8.11;100.00;99102.69;5036029;28;20268;-60
2023/02/23 09:57:17;;;;;;;98.82;49.38;;;;;;;8.17;100.00;99104.44;5046746;28;20032;-60
2023/02/23 09:59:44;;;;;;;118.30;51.92;;;;;;;8.25;100.00;99105.16;5043728;28;20029;-60
2023/02/23 10:02:36;;;;;;;111.25;51.38;;;;;;;8.17;100.00;99111.63;5046890;28;20506;-60
2023/02/23 10:05:04;;;;;;;145.02;61.25;;;;;;;8.13;100.00;99113.13;5040016;28;20033;-60
2023/02/23 10:07:47;;;;;;;107.55;50.72;;;;;;;8.12;100.00;99112.31;5025259;28;20375;-59
2023/02/23 10:10:48;;;;;;;144.10;62.38;;;;;;;8.12;100.00;99106.97;5042127;28;20166;-60
2023/02/23 10:13:27;;;;;;;94.65;45.55;;;;;;;8.01;100.00;99113.09;5049866;28;20029;-60
2023/02/23 10:16:13;;;;;;;114.50;51.33;;;;;;;8.10;100.00;99116.25;5046124;28;20025;-59
2023/02/23 10:18:40;;;;;;;107.35;50.00;;;;;;;8.13;100.00;99121.13;5045707;28;20119;-59
2023/02/23 10:21:20;;;;;;;107.45;49.92;;;;;;;8.09;100.00;99120.00;5039973;28;20029;-59
2023/02/23 10:23:48;;;;;;;;;;;;;;;8.11;100.00;99123.22;5020768;28;20120;-60
2023/02/23 10:26:16;;;;;;;110.45;51.35;;;;;;;8.13;100.00;99126.47;5051149;28;19927;-60
2023/02/23 10:28:42;;;;;;;126.53;52.13;;;;;;;8.11;100.00;99123.22;5051480;28;20040;-60
2023/02/23 10:31:41;;;;;;;108.10;45.83;;;;;;;8.31;100.00;99130.91;5046760;28;20025;-59
2023/02/23 10:34:12;;;;;;;105.95;45.50;;;;;;;8.29;100.00;99136.50;5039153;28;20480;-60
2023/02/23 10:36:46;;;;;;;116.40;48.25;;;;;;;8.43;100.00;99132.59;5051822;28;20717;-60
2023/02/23 10:39:12;;;;;;;100.03;43.90;;;;;;;8.39;100.00;99135.94;5037433;28;20112;-60
2023/02/23 10:41:37;;;;;;;111.13;47.88;;;;;;;8.24;100.00;99139.06;5039689;28;20027;-60
2023/02/23 10:44:04;;;;;;;108.60;44.47;;;;;;;8.28;100.00;99140.19;5041782;28;20036;-58
2023/02/23 10:46:37;;;;;;;108.15;48.33;;;;;;;8.15;100.00;99138.56;5040277;28;20032;-58
2023/02/23 10:49:02;;;;;;;99.65;44.83;;;;;;;8.25;100.00;99146.00;5028615;28;20382;-59
2023/02/23 10:51:31;;;;;;;103.05;46.17;;;;;;;8.18;100.00;99139.94;5043388;28;20087;-59
2023/02/23 10:53:56;;;;;;;108.65;48.38;;;;;;;8.14;100.00;99139.59;5029636;28;20036;-58
2023/02/23 10:56:22;;;;;;;116.50;48.70;;;;;;;8.07;100.00;99132.75;5040157;28;20041;-59
2023/02/23 10:58:49;;;;;;;140.48;54.63;;;;;;;7.94;100.00;99139.91;5064182;28;20489;-61
2023/02/23 11:01:30;;;;;;;109.80;46.47;;;;;;;8.10;100.00;99138.44;5049834;28;20029;-60
2023/02/23 11:03:55;;;;;;;110.13;46.60;;;;;;;8.20;100.00;99145.88;5034235;28;20485;-59
2023/02/23 11:06:41;;;;;;;113.97;47.38;;;;;;;8.02;100.00;99140.63;5043745;28;20029;-60
2023/02/23 11:09:30;;;;;;;126.85;50.10;;;;;;;8.03;100.00;99143.03;5040143;28;20033;-60
2023/02/23 11:12:28;;;;;;;118.75;48.40;;;;;;;8.01;100.00;99145.13;5091067;27;20945;-61
2023/02/23 11:14:55;;;;;;;119.97;47.78;;;;;;;8.11;100.00;99136.56;5102690;28;20036;-61
2023/02/23 11:17:33;;;;;;;110.10;46.47;;;;;;;8.07;100.00;99138.09;5096773;28;20032;-61
2023/02/23 11:20:16;;;;;;;107.65;45.92;;;;;;;8.27;100.00;99141.25;5094887;28;20043;-61
2023/02/23 11:22:41;;;;;;;106.05;45.40;;;;;;;8.51;100.00;99149.31;5085635;27;20023;-61
2023/02/23 11:25:40;;;;;;;103.75;45.10;;;;;;;8.57;100.00;99146.56;5080466;28;20035;-61
2023/02/23 11:28:24;;;;;;;92.45;43.67;;;;;;;8.73;100.00;99145.03;5036406;28;20047;-60
2023/02/23 11:30:49;;;;;;;96.97;43.47;;;;;;;8.76;100.00;99139.25;5063494;28;20038;-60
2023/02/23 11:33:16;;;;;;;97.50;43.17;;;;;;;8.76;100.00;99135.75;5096212;28;20028;-60
2023/02/23 11:35:41;;;;;;;98.82;45.22;;;;;;;8.98;100.00;99133.28;5092491;28;20125;-60
2023/02/23 11:38:14;;;;;;;104.05;42.78;;;;;;;9.13;100.00;99128.28;5077472;28;20454;-60
2023/02/23 11:40:39;;;;;;;87.50;39.63;;;;;;;8.97;100.00;99124.47;5098581;28;20036;-60
2023/02/23 11:43:12;;;;;;;87.13;40.97;;;;;;;8.96;100.00;99124.69;5086933;28;20024;-60
2023/02/23 11:45:46;;;;;;;92.05;42.13;;;;;;;8.79;100.00;99112.06;5074923;28;20037;-59
2023/02/23 11:48:24;;;;;;;89.07;39.60;;;;;;;8.87;100.00;99118.09;5076937;28;20020;-60
2023/02/23 11:50:49;;;;;;;91.32;42.00;;;;;;;8.91;100.00;99113.91;5094428;28;20508;-60
2023/02/23 11:53:15;;;;;;;96.10;42.47;;;;;;;9.23;100.00;99115.09;5078706;28;20055;-60
2023/02/23 11:55:53;;;;;;;93.38;42.78;;;;;;;9.15;100.00;99107.47;5096033;28;20402;-60
2023/02/23 11:58:55;;;;;;;89.43;40.75;;;;;;;9.18;100.00;99111.53;5079180;28;20036;-60
2023/02/23 12:01:23;;;;;;;97.65;40.15;;;;;;;9.39;100.00;99113.56;5055737;28;20127;-60
2023/02/23 12:03:53;;;;;;;93.63;41.28;;;;;;;9.48;100.00;99114.00;5098411;28;20139;-60
2023/02/23 12:06:34;;;;;;;89.43;38.83;;;;;;;9.55;100.00;99116.53;5083373;28;20059;-60
2023/02/23 12:09:23;;;;;;;95.88;42.33;;;;;;;9.43;100.00;99108.56;5073314;28;20631;-60
2023/02/23 12:11:56;;;;;;;88.88;38.13;;;;;;;9.37;100.00;99104.97;5088975;28;20642;-60
2023/02/23 12:14:40;;;;;;;88.30;39.83;;;;;;;9.17;100.00;99100.03;5081712;28;20027;-60
2023/02/23 12:17:08;;;;;;;91.40;42.25;;;;;;;9.26;100.00;99103.13;5089805;28;20187;-60
2023/02/23 12:19:45;;;;;;;96.82;41.28;;;;;;;9.09;100.00;99103.06;5068451;28;20039;-60
2023/02/23 12:22:22;;;;;;;90.07;41.38;;;;;;;9.23;100.00;99104.41;5092619;28;20029;-60
2023/02/23 12:24:57;;;;;;;99.80;42.70;;;;;;;9.11;100.00;99108.16;5060704;28;20111;-60
2023/02/23 12:27:36;;;;;;;90.05;38.92;;;;;;;9.23;100.00;99103.59;5086721;28;20157;-60
2023/02/23 12:30:14;;;;;;;86.63;40.75;;;;;;;9.37;100.00;99099.63;5044385;28;20032;-60
2023/02/23 12:33:03;;;;;;;88.60;38.33;;;;;;;9.31;100.00;99105.09;5073852;28;20598;-60
2023/02/23 12:35:55;;;;;;;87.63;38.33;;;;;;;9.37;100.00;99094.28;5076705;28;20088;-60
2023/02/23 12:38:38;;;;;;;101.13;40.38;;;;;;;9.66;100.00;99097.78;5067024;28;20024;-60
2023/02/23 12:41:15;;;;;;;81.38;36.83;;;;;;;9.72;100.00;99096.81;5061378;28;20490;-60
2023/02/23 12:43:50;;;;;;;88.40;40.03;;;;;;;9.79;100.00;99090.50;5062672;28;20040;-60
2023/02/23 12:46:29;;;;;;;99.00;40.17;;;;;;;9.74;100.00;99093.09;5087974;28;20020;-60